sensor_id;sensor_type;location;lat;lon;timestamp;P1;durP1;ratioP1;P2;durP2;ratioP2
16391;SDS011;8305;-33.882;151.134;2023-03-02T00:00:16;4.72;;;1.60;;
16391;SDS011;8305;-33.882;151.134;2023-03-02T00:02:48;4.40;;;1.70;;
16391;SDS011;8305;-33.882;151.134;2023-03-02T00:05:19;4.63;;;1.40;;
16391;SDS011;8305;-33.882;151.134;2023-03-02T00:07:50;3.13;;;1.58;;
16391;SDS011;8305;-33.882;151.134;2023-03-02T00:10:24;4.32;;;1.40;;
16391;SDS011;8305;-33.882;151.134;2023-03-02T00:12:55;4.50;;;1.42;;
16391;SDS011;8305;-33.882;151.134;2023-03-02T00:15:28;2.25;;;1.08;;
16391;SDS011;8305;-33.882;151.134;2023-03-02T00:17:59;2.22;;;1.20;;
16391;SDS011;8305;-33.882;151.134;2023-03-02T00:20:30;2.95;;;1.10;;
16391;SDS011;8305;-33.882;151.134;2023-03-02T00:23:02;2.30;;;0.90;;
16391;SDS011;8305;-33.882;151.134;2023-03-02T00:25:35;6.20;;;1.20;;
16391;SDS011;8305;-33.882;151.134;2023-03-02T00:28:06;3.15;;;1.10;;
16391;SDS011;8305;-33.882;151.134;2023-03-02T00:30:37;2.55;;;1.10;;
16391;SDS011;8305;-33.882;151.134;2023-03-02T00:33:08;2.75;;;1.00;;
16391;SDS011;8305;-33.882;151.134;2023-03-02T00:35:39;3.50;;;1.38;;
16391;SDS011;8305;-33.882;151.134;2023-03-02T00:38:10;4.72;;;1.23;;
16391;SDS011;8305;-33.882;151.134;2023-03-02T00:40:45;2.13;;;0.98;;
16391;SDS011;8305;-33.882;151.134;2023-03-02T00:43:17;3.05;;;1.10;;
16391;SDS011;8305;-33.882;151.134;2023-03-02T00:45:52;5.78;;;1.13;;
16391;SDS011;8305;-33.882;151.134;2023-03-02T00:48:24;4.05;;;1.20;;
16391;SDS011;8305;-33.882;151.134;2023-03-02T00:50:55;2.05;;;0.88;;
16391;SDS011;8305;-33.882;151.134;2023-03-02T00:53:28;4.05;;;1.13;;
16391;SDS011;8305;-33.882;151.134;2023-03-02T00:56:02;2.33;;;0.90;;
16391;SDS011;8305;-33.882;151.134;2023-03-02T00:58:33;4.75;;;1.00;;
16391;SDS011;8305;-33.882;151.134;2023-03-02T01:01:06;3.28;;;1.08;;
16391;SDS011;8305;-33.882;151.134;2023-03-02T01:03:39;8.52;;;1.73;;
16391;SDS011;8305;-33.882;151.134;2023-03-02T01:06:13;2.67;;;1.00;;
16391;SDS011;8305;-33.882;151.134;2023-03-02T01:08:46;3.60;;;1.10;;
16391;SDS011;8305;-33.882;151.134;2023-03-02T01:11:20;3.20;;;1.13;;
16391;SDS011;8305;-33.882;151.134;2023-03-02T01:13:51;2.88;;;1.00;;
16391;SDS011;8305;-33.882;151.134;2023-03-02T01:16:22;2.17;;;1.33;;
16391;SDS011;8305;-33.882;151.134;2023-03-02T01:18:53;2.47;;;1.10;;
16391;SDS011;8305;-33.882;151.134;2023-03-02T01:21:24;2.20;;;0.80;;
16391;SDS011;8305;-33.882;151.134;2023-03-02T01:23:57;4.00;;;1.10;;
16391;SDS011;8305;-33.882;151.134;2023-03-02T01:26:30;3.33;;;0.90;;
16391;SDS011;8305;-33.882;151.134;2023-03-02T01:29:01;3.13;;;0.88;;
16391;SDS011;8305;-33.882;151.134;2023-03-02T01:31:32;2.85;;;0.90;;
16391;SDS011;8305;-33.882;151.134;2023-03-02T01:34:03;2.40;;;0.88;;
16391;SDS011;8305;-33.882;151.134;2023-03-02T01:36:34;2.80;;;0.70;;
16391;SDS011;8305;-33.882;151.134;2023-03-02T01:39:06;2.05;;;0.70;;
16391;SDS011;8305;-33.882;151.134;2023-03-02T01:41:43;2.00;;;0.68;;
16391;SDS011;8305;-33.882;151.134;2023-03-02T01:47:12;3.58;;;1.00;;
16391;SDS011;8305;-33.882;151.134;2023-03-02T01:49:47;2.72;;;0.90;;
16391;SDS011;8305;-33.882;151.134;2023-03-02T01:52:20;2.15;;;1.00;;
16391;SDS011;8305;-33.882;151.134;2023-03-02T01:54:51;1.80;;;0.80;;
16391;SDS011;8305;-33.882;151.134;2023-03-02T01:57:27;4.93;;;0.85;;
16391;SDS011;8305;-33.882;151.134;2023-03-02T02:00:08;3.13;;;0.77;;
16391;SDS011;8305;-33.882;151.134;2023-03-02T02:02:44;3.00;;;0.80;;
16391;SDS011;8305;-33.882;151.134;2023-03-02T02:05:17;1.75;;;0.60;;
16391;SDS011;8305;-33.882;151.134;2023-03-02T02:07:50;1.65;;;0.73;;
16391;SDS011;8305;-33.882;151.134;2023-03-02T02:10:21;3.33;;;0.73;;
16391;SDS011;8305;-33.882;151.134;2023-03-02T02:12:54;2.92;;;0.85;;
16391;SDS011;8305;-33.882;151.134;2023-03-02T02:15:25;2.35;;;0.90;;
16391;SDS011;8305;-33.882;151.134;2023-03-02T02:17:57;3.20;;;0.93;;
16391;SDS011;8305;-33.882;151.134;2023-03-02T02:20:29;1.40;;;0.80;;
16391;SDS011;8305;-33.882;151.134;2023-03-02T02:23:07;3.47;;;0.98;;
16391;SDS011;8305;-33.882;151.134;2023-03-02T02:25:54;2.63;;;1.05;;
16391;SDS011;8305;-33.882;151.134;2023-03-02T02:28:33;2.45;;;0.80;;
16391;SDS011;8305;-33.882;151.134;2023-03-02T02:31:08;4.25;;;1.05;;
16391;SDS011;8305;-33.882;151.134;2023-03-02T02:33:44;4.93;;;1.17;;
16391;SDS011;8305;-33.882;151.134;2023-03-02T02:36:19;3.28;;;0.90;;
16391;SDS011;8305;-33.882;151.134;2023-03-02T02:38:53;3.47;;;1.05;;
16391;SDS011;8305;-33.882;151.134;2023-03-02T02:41:27;2.80;;;0.80;;
16391;SDS011;8305;-33.882;151.134;2023-03-02T02:44:01;3.38;;;0.90;;
16391;SDS011;8305;-33.882;151.134;2023-03-02T02:46:32;3.20;;;1.20;;
16391;SDS011;8305;-33.882;151.134;2023-03-02T02:49:04;3.33;;;1.00;;
16391;SDS011;8305;-33.882;151.134;2023-03-02T02:51:39;4.10;;;1.10;;
16391;SDS011;8305;-33.882;151.134;2023-03-02T02:54:09;4.65;;;1.17;;
16391;SDS011;8305;-33.882;151.134;2023-03-02T02:56:47;2.88;;;1.00;;
16391;SDS011;8305;-33.882;151.134;2023-03-02T02:59:20;3.88;;;0.90;;
16391;SDS011;8305;-33.882;151.134;2023-03-02T03:01:54;4.47;;;1.15;;
16391;SDS011;8305;-33.882;151.134;2023-03-02T03:04:26;2.72;;;0.90;;
16391;SDS011;8305;-33.882;151.134;2023-03-02T03:06:59;2.60;;;0.80;;
16391;SDS011;8305;-33.882;151.134;2023-03-02T03:09:31;2.35;;;0.90;;
16391;SDS011;8305;-33.882;151.134;2023-03-02T03:12:07;1.73;;;0.90;;
16391;SDS011;8305;-33.882;151.134;2023-03-02T03:14:43;3.42;;;0.80;;
16391;SDS011;8305;-33.882;151.134;2023-03-02T03:17:15;2.70;;;0.90;;
16391;SDS011;8305;-33.882;151.134;2023-03-02T03:19:46;2.03;;;0.90;;
16391;SDS011;8305;-33.882;151.134;2023-03-02T03:22:17;1.85;;;1.10;;
16391;SDS011;8305;-33.882;151.134;2023-03-02T03:24:48;2.95;;;0.77;;
16391;SDS011;8305;-33.882;151.134;2023-03-02T03:27:21;3.33;;;0.90;;
16391;SDS011;8305;-33.882;151.134;2023-03-02T03:29:52;1.63;;;0.70;;
16391;SDS011;8305;-33.882;151.134;2023-03-02T03:32:23;2.20;;;0.75;;
16391;SDS011;8305;-33.882;151.134;2023-03-02T03:34:54;4.68;;;0.77;;
16391;SDS011;8305;-33.882;151.134;2023-03-02T03:37:25;3.00;;;0.85;;
16391;SDS011;8305;-33.882;151.134;2023-03-02T03:39:58;2.72;;;1.48;;
16391;SDS011;8305;-33.882;151.134;2023-03-02T03:42:34;1.50;;;0.73;;
16391;SDS011;8305;-33.882;151.134;2023-03-02T03:45:05;2.40;;;0.80;;
16391;SDS011;8305;-33.882;151.134;2023-03-02T03:47:38;2.25;;;1.10;;
16391;SDS011;8305;-33.882;151.134;2023-03-02T03:50:11;1.20;;;0.68;;
16391;SDS011;8305;-33.882;151.134;2023-03-02T03:52:42;0.93;;;0.68;;
16391;SDS011;8305;-33.882;151.134;2023-03-02T03:55:13;3.38;;;1.05;;
16391;SDS011;8305;-33.882;151.134;2023-03-02T03:57:46;1.70;;;0.70;;
16391;SDS011;8305;-33.882;151.134;2023-03-02T04:00:17;2.30;;;0.90;;
16391;SDS011;8305;-33.882;151.134;2023-03-02T04:02:49;3.15;;;0.70;;
16391;SDS011;8305;-33.882;151.134;2023-03-02T04:05:20;1.67;;;0.80;;
16391;SDS011;8305;-33.882;151.134;2023-03-02T04:07:52;3.92;;;0.82;;
16391;SDS011;8305;-33.882;151.134;2023-03-02T04:10:24;2.33;;;0.80;;
16391;SDS011;8305;-33.882;151.134;2023-03-02T04:12:57;1.70;;;0.70;;
16391;SDS011;8305;-33.882;151.134;2023-03-02T04:15:28;1.50;;;0.80;;
16391;SDS011;8305;-33.882;151.134;2023-03-02T04:18:00;2.05;;;0.80;;
16391;SDS011;8305;-33.882;151.134;2023-03-02T04:20:31;2.65;;;0.80;;
16391;SDS011;8305;-33.882;151.134;2023-03-02T04:23:02;1.23;;;0.77;;
16391;SDS011;8305;-33.882;151.134;2023-03-02T04:25:33;1.58;;;0.80;;
16391;SDS011;8305;-33.882;151.134;2023-03-02T04:28:06;2.83;;;0.63;;
16391;SDS011;8305;-33.882;151.134;2023-03-02T04:30:37;1.98;;;0.60;;
16391;SDS011;8305;-33.882;151.134;2023-03-02T04:33:08;1.58;;;0.70;;
16391;SDS011;8305;-33.882;151.134;2023-03-02T04:35:39;3.00;;;0.88;;
16391;SDS011;8305;-33.882;151.134;2023-03-02T04:38:10;3.17;;;0.85;;
16391;SDS011;8305;-33.882;151.134;2023-03-02T04:40:41;4.40;;;0.60;;
16391;SDS011;8305;-33.882;151.134;2023-03-02T04:43:14;3.92;;;0.77;;
16391;SDS011;8305;-33.882;151.134;2023-03-02T04:45:45;2.50;;;0.75;;
16391;SDS011;8305;-33.882;151.134;2023-03-02T04:48:16;1.95;;;0.60;;
16391;SDS011;8305;-33.882;151.134;2023-03-02T04:50:48;2.95;;;0.77;;
16391;SDS011;8305;-33.882;151.134;2023-03-02T04:53:19;1.95;;;0.70;;
16391;SDS011;8305;-33.882;151.134;2023-03-02T04:55:50;1.15;;;0.60;;
16391;SDS011;8305;-33.882;151.134;2023-03-02T04:58:23;1.48;;;0.65;;
16391;SDS011;8305;-33.882;151.134;2023-03-02T05:00:54;1.38;;;0.60;;
16391;SDS011;8305;-33.882;151.134;2023-03-02T05:03:27;2.92;;;0.70;;
16391;SDS011;8305;-33.882;151.134;2023-03-02T05:05:58;1.70;;;0.50;;
16391;SDS011;8305;-33.882;151.134;2023-03-02T05:08:31;4.57;;;0.73;;
16391;SDS011;8305;-33.882;151.134;2023-03-02T05:11:02;1.23;;;0.60;;
16391;SDS011;8305;-33.882;151.134;2023-03-02T05:13:35;1.77;;;0.50;;
16391;SDS011;8305;-33.882;151.134;2023-03-02T05:16:06;3.15;;;0.77;;
16391;SDS011;8305;-33.882;151.134;2023-03-02T05:18:37;2.80;;;0.57;;
16391;SDS011;8305;-33.882;151.134;2023-03-02T05:21:09;2.40;;;0.60;;
16391;SDS011;8305;-33.882;151.134;2023-03-02T05:23:40;3.13;;;0.70;;
16391;SDS011;8305;-33.882;151.134;2023-03-02T05:26:12;4.28;;;0.77;;
16391;SDS011;8305;-33.882;151.134;2023-03-02T05:28:45;2.22;;;0.70;;
16391;SDS011;8305;-33.882;151.134;2023-03-02T05:31:17;1.90;;;0.70;;
16391;SDS011;8305;-33.882;151.134;2023-03-02T05:33:50;3.92;;;0.90;;
16391;SDS011;8305;-33.882;151.134;2023-03-02T05:36:21;1.42;;;0.68;;
16391;SDS011;8305;-33.882;151.134;2023-03-02T05:38:52;3.92;;;0.90;;
16391;SDS011;8305;-33.882;151.134;2023-03-02T05:41:24;3.60;;;0.90;;
16391;SDS011;8305;-33.882;151.134;2023-03-02T05:43:57;2.25;;;0.60;;
16391;SDS011;8305;-33.882;151.134;2023-03-02T05:46:28;3.97;;;0.70;;
16391;SDS011;8305;-33.882;151.134;2023-03-02T05:48:59;2.03;;;0.60;;
16391;SDS011;8305;-33.882;151.134;2023-03-02T05:51:30;2.85;;;0.70;;
16391;SDS011;8305;-33.882;151.134;2023-03-02T05:54:03;1.65;;;0.90;;
16391;SDS011;8305;-33.882;151.134;2023-03-02T05:56:34;2.33;;;0.70;;
16391;SDS011;8305;-33.882;151.134;2023-03-02T05:59:07;2.65;;;0.85;;
16391;SDS011;8305;-33.882;151.134;2023-03-02T06:01:38;1.40;;;0.80;;
16391;SDS011;8305;-33.882;151.134;2023-03-02T06:04:09;1.50;;;0.60;;
16391;SDS011;8305;-33.882;151.134;2023-03-02T06:06:40;2.60;;;0.70;;
16391;SDS011;8305;-33.882;151.134;2023-03-02T06:09:11;3.53;;;0.82;;
16391;SDS011;8305;-33.882;151.134;2023-03-02T06:11:42;2.85;;;0.70;;
16391;SDS011;8305;-33.882;151.134;2023-03-02T06:14:15;2.78;;;0.90;;
16391;SDS011;8305;-33.882;151.134;2023-03-02T06:16:46;3.75;;;1.00;;
16391;SDS011;8305;-33.882;151.134;2023-03-02T06:19:17;2.40;;;0.90;;
16391;SDS011;8305;-33.882;151.134;2023-03-02T06:21:48;1.98;;;0.68;;
16391;SDS011;8305;-33.882;151.134;2023-03-02T06:24:19;3.45;;;0.93;;
16391;SDS011;8305;-33.882;151.134;2023-03-02T06:26:52;2.97;;;0.73;;
16391;SDS011;8305;-33.882;151.134;2023-03-02T06:29:25;1.75;;;0.60;;
16391;SDS011;8305;-33.882;151.134;2023-03-02T06:31:56;3.00;;;0.75;;
16391;SDS011;8305;-33.882;151.134;2023-03-02T06:34:27;4.53;;;0.75;;
16391;SDS011;8305;-33.882;151.134;2023-03-02T06:36:58;1.25;;;0.55;;
16391;SDS011;8305;-33.882;151.134;2023-03-02T06:39:29;2.90;;;0.82;;
16391;SDS011;8305;-33.882;151.134;2023-03-02T06:42:01;2.25;;;0.70;;
16391;SDS011;8305;-33.882;151.134;2023-03-02T06:44:34;1.77;;;0.77;;
16391;SDS011;8305;-33.882;151.134;2023-03-02T06:47:05;2.20;;;0.77;;
16391;SDS011;8305;-33.882;151.134;2023-03-02T06:49:36;3.13;;;0.80;;
16391;SDS011;8305;-33.882;151.134;2023-03-02T06:52:07;4.00;;;1.00;;
16391;SDS011;8305;-33.882;151.134;2023-03-02T06:54:38;4.68;;;1.30;;
16391;SDS011;8305;-33.882;151.134;2023-03-02T06:57:09;2.67;;;0.95;;
16391;SDS011;8305;-33.882;151.134;2023-03-02T06:59:42;2.03;;;0.82;;
16391;SDS011;8305;-33.882;151.134;2023-03-02T07:02:13;2.63;;;0.88;;
16391;SDS011;8305;-33.882;151.134;2023-03-02T07:04:45;3.35;;;0.80;;
16391;SDS011;8305;-33.882;151.134;2023-03-02T07:07:16;2.45;;;0.80;;
16391;SDS011;8305;-33.882;151.134;2023-03-02T07:09:47;2.90;;;0.88;;
16391;SDS011;8305;-33.882;151.134;2023-03-02T07:12:18;3.35;;;0.90;;
16391;SDS011;8305;-33.882;151.134;2023-03-02T07:14:51;4.10;;;1.10;;
16391;SDS011;8305;-33.882;151.134;2023-03-02T07:17:22;4.63;;;1.33;;
16391;SDS011;8305;-33.882;151.134;2023-03-02T07:19:53;3.75;;;0.98;;
16391;SDS011;8305;-33.882;151.134;2023-03-02T07:22:24;5.00;;;1.52;;
16391;SDS011;8305;-33.882;151.134;2023-03-02T07:24:55;3.05;;;1.13;;
16391;SDS011;8305;-33.882;151.134;2023-03-02T07:27:26;2.88;;;0.95;;
16391;SDS011;8305;-33.882;151.134;2023-03-02T07:29:59;6.55;;;1.02;;
16391;SDS011;8305;-33.882;151.134;2023-03-02T07:32:30;5.22;;;1.02;;
16391;SDS011;8305;-33.882;151.134;2023-03-02T07:35:01;4.35;;;1.20;;
16391;SDS011;8305;-33.882;151.134;2023-03-02T07:37:33;7.25;;;1.30;;
16391;SDS011;8305;-33.882;151.134;2023-03-02T07:40:04;1.70;;;0.90;;
16391;SDS011;8305;-33.882;151.134;2023-03-02T07:42:36;3.35;;;0.90;;
16391;SDS011;8305;-33.882;151.134;2023-03-02T07:45:10;3.50;;;1.17;;
16391;SDS011;8305;-33.882;151.134;2023-03-02T07:47:42;3.33;;;0.90;;
16391;SDS011;8305;-33.882;151.134;2023-03-02T07:50:13;2.78;;;1.10;;
16391;SDS011;8305;-33.882;151.134;2023-03-02T07:52:44;3.35;;;1.10;;
16391;SDS011;8305;-33.882;151.134;2023-03-02T07:55:15;4.55;;;1.20;;
16391;SDS011;8305;-33.882;151.134;2023-03-02T07:57:49;3.10;;;1.05;;
16391;SDS011;8305;-33.882;151.134;2023-03-02T08:00:22;1.75;;;1.02;;
16391;SDS011;8305;-33.882;151.134;2023-03-02T08:02:54;3.50;;;1.00;;
16391;SDS011;8305;-33.882;151.134;2023-03-02T08:05:25;3.10;;;0.93;;
16391;SDS011;8305;-33.882;151.134;2023-03-02T08:07:56;2.95;;;0.80;;
16391;SDS011;8305;-33.882;151.134;2023-03-02T08:10:27;2.08;;;0.88;;
16391;SDS011;8305;-33.882;151.134;2023-03-02T08:12:58;4.13;;;0.80;;
16391;SDS011;8305;-33.882;151.134;2023-03-02T08:15:31;3.40;;;0.93;;
16391;SDS011;8305;-33.882;151.134;2023-03-02T08:18:02;3.58;;;1.08;;
16391;SDS011;8305;-33.882;151.134;2023-03-02T08:20:33;2.42;;;1.50;;
16391;SDS011;8305;-33.882;151.134;2023-03-02T08:23:05;3.30;;;1.20;;
16391;SDS011;8305;-33.882;151.134;2023-03-02T08:25:36;4.88;;;1.17;;
16391;SDS011;8305;-33.882;151.134;2023-03-02T08:28:10;3.22;;;1.10;;
16391;SDS011;8305;-33.882;151.134;2023-03-02T08:30:43;2.88;;;1.50;;
16391;SDS011;8305;-33.882;151.134;2023-03-02T08:33:22;3.10;;;1.20;;
16391;SDS011;8305;-33.882;151.134;2023-03-02T08:35:54;3.08;;;1.17;;
16391;SDS011;8305;-33.882;151.134;2023-03-02T08:38:26;4.38;;;1.40;;
16391;SDS011;8305;-33.882;151.134;2023-03-02T08:40:58;3.20;;;1.10;;
16391;SDS011;8305;-33.882;151.134;2023-03-02T08:43:33;1.92;;;0.93;;
16391;SDS011;8305;-33.882;151.134;2023-03-02T08:46:06;5.03;;;1.10;;
16391;SDS011;8305;-33.882;151.134;2023-03-02T08:48:38;5.45;;;0.90;;
16391;SDS011;8305;-33.882;151.134;2023-03-02T08:51:11;2.15;;;1.05;;
16391;SDS011;8305;-33.882;151.134;2023-03-02T08:53:43;2.03;;;0.93;;
16391;SDS011;8305;-33.882;151.134;2023-03-02T08:56:16;3.88;;;1.40;;
16391;SDS011;8305;-33.882;151.134;2023-03-02T08:58:48;3.67;;;1.30;;
16391;SDS011;8305;-33.882;151.134;2023-03-02T09:01:23;3.80;;;1.27;;
16391;SDS011;8305;-33.882;151.134;2023-03-02T09:03:55;4.70;;;1.23;;
16391;SDS011;8305;-33.882;151.134;2023-03-02T09:06:27;3.00;;;1.15;;
16391;SDS011;8305;-33.882;151.134;2023-03-02T09:08:59;4.45;;;1.45;;
16391;SDS011;8305;-33.882;151.134;2023-03-02T09:11:30;2.63;;;1.15;;
16391;SDS011;8305;-33.882;151.134;2023-03-02T09:14:02;2.28;;;1.10;;
16391;SDS011;8305;-33.882;151.134;2023-03-02T09:16:35;2.85;;;1.38;;
16391;SDS011;8305;-33.882;151.134;2023-03-02T09:19:06;4.00;;;1.30;;
16391;SDS011;8305;-33.882;151.134;2023-03-02T09:21:38;5.45;;;1.30;;
16391;SDS011;8305;-33.882;151.134;2023-03-02T09:24:09;5.35;;;1.15;;
16391;SDS011;8305;-33.882;151.134;2023-03-02T09:26:40;2.28;;;1.10;;
16391;SDS011;8305;-33.882;151.134;2023-03-02T09:29:11;1.92;;;0.93;;
16391;SDS011;8305;-33.882;151.134;2023-03-02T09:31:44;5.45;;;1.10;;
16391;SDS011;8305;-33.882;151.134;2023-03-02T09:34:15;4.60;;;1.13;;
16391;SDS011;8305;-33.882;151.134;2023-03-02T09:36:48;6.05;;;1.75;;
16391;SDS011;8305;-33.882;151.134;2023-03-02T09:39:19;3.85;;;1.23;;
16391;SDS011;8305;-33.882;151.134;2023-03-02T09:42:09;4.43;;;1.33;;
16391;SDS011;8305;-33.882;151.134;2023-03-02T09:48:09;3.60;;;1.50;;
16391;SDS011;8305;-33.882;151.134;2023-03-02T09:50:51;5.10;;;1.35;;
16391;SDS011;8305;-33.882;151.134;2023-03-02T09:53:38;2.78;;;1.10;;
16391;SDS011;8305;-33.882;151.134;2023-03-02T09:56:15;3.72;;;1.00;;
16391;SDS011;8305;-33.882;151.134;2023-03-02T09:58:48;4.88;;;1.15;;
16391;SDS011;8305;-33.882;151.134;2023-03-02T10:01:31;4.07;;;1.15;;
16391;SDS011;8305;-33.882;151.134;2023-03-02T10:04:13;4.70;;;1.27;;
16391;SDS011;8305;-33.882;151.134;2023-03-02T10:06:51;3.08;;;1.00;;
16391;SDS011;8305;-33.882;151.134;2023-03-02T10:09:24;2.67;;;1.13;;
16391;SDS011;8305;-33.882;151.134;2023-03-02T10:12:07;4.50;;;1.42;;
16391;SDS011;8305;-33.882;151.134;2023-03-02T10:14:52;3.80;;;1.20;;
16391;SDS011;8305;-33.882;151.134;2023-03-02T10:20:23;3.67;;;1.05;;
16391;SDS011;8305;-33.882;151.134;2023-03-02T10:23:05;4.28;;;1.10;;
16391;SDS011;8305;-33.882;151.134;2023-03-02T10:25:56;3.53;;;1.05;;
16391;SDS011;8305;-33.882;151.134;2023-03-02T10:28:34;3.88;;;1.05;;
16391;SDS011;8305;-33.882;151.134;2023-03-02T10:31:09;5.40;;;1.20;;
16391;SDS011;8305;-33.882;151.134;2023-03-02T10:33:45;8.07;;;1.52;;
16391;SDS011;8305;-33.882;151.134;2023-03-02T10:36:20;2.47;;;0.90;;
16391;SDS011;8305;-33.882;151.134;2023-03-02T10:38:54;4.60;;;1.30;;
16391;SDS011;8305;-33.882;151.134;2023-03-02T10:41:26;6.07;;;1.38;;
16391;SDS011;8305;-33.882;151.134;2023-03-02T10:44:01;6.13;;;1.20;;
16391;SDS011;8305;-33.882;151.134;2023-03-02T10:46:39;2.70;;;1.00;;
16391;SDS011;8305;-33.882;151.134;2023-03-02T10:49:22;4.20;;;1.40;;
16391;SDS011;8305;-33.882;151.134;2023-03-02T10:52:00;3.95;;;1.30;;
16391;SDS011;8305;-33.882;151.134;2023-03-02T10:54:32;1.88;;;1.08;;
16391;SDS011;8305;-33.882;151.134;2023-03-02T10:57:04;3.20;;;0.93;;
16391;SDS011;8305;-33.882;151.134;2023-03-02T10:59:58;3.15;;;1.10;;
16391;SDS011;8305;-33.882;151.134;2023-03-02T11:02:31;3.70;;;1.10;;
16391;SDS011;8305;-33.882;151.134;2023-03-02T11:05:18;3.65;;;1.13;;
16391;SDS011;8305;-33.882;151.134;2023-03-02T11:07:59;4.40;;;1.00;;
16391;SDS011;8305;-33.882;151.134;2023-03-02T11:10:31;4.22;;;0.88;;
16391;SDS011;8305;-33.882;151.134;2023-03-02T11:13:07;2.97;;;1.20;;
16391;SDS011;8305;-33.882;151.134;2023-03-02T11:15:46;3.53;;;0.93;;
16391;SDS011;8305;-33.882;151.134;2023-03-02T11:18:20;2.28;;;0.80;;
16391;SDS011;8305;-33.882;151.134;2023-03-02T11:20:56;5.07;;;1.20;;
16391;SDS011;8305;-33.882;151.134;2023-03-02T11:23:35;2.47;;;0.88;;
16391;SDS011;8305;-33.882;151.134;2023-03-02T11:26:19;6.10;;;1.30;;
16391;SDS011;8305;-33.882;151.134;2023-03-02T11:28:54;4.13;;;1.02;;
16391;SDS011;8305;-33.882;151.134;2023-03-02T11:31:32;3.15;;;0.98;;
16391;SDS011;8305;-33.882;151.134;2023-03-02T11:34:21;4.47;;;0.93;;
16391;SDS011;8305;-33.882;151.134;2023-03-02T11:37:00;1.92;;;1.13;;
16391;SDS011;8305;-33.882;151.134;2023-03-02T11:39:51;1.83;;;0.80;;
16391;SDS011;8305;-33.882;151.134;2023-03-02T11:42:40;1.70;;;0.85;;
16391;SDS011;8305;-33.882;151.134;2023-03-02T11:45:16;1.98;;;0.93;;
16391;SDS011;8305;-33.882;151.134;2023-03-02T11:47:52;4.30;;;1.10;;
16391;SDS011;8305;-33.882;151.134;2023-03-02T11:50:25;4.63;;;0.80;;
16391;SDS011;8305;-33.882;151.134;2023-03-02T11:52:57;5.10;;;1.10;;
16391;SDS011;8305;-33.882;151.134;2023-03-02T11:55:34;4.82;;;1.50;;
16391;SDS011;8305;-33.882;151.134;2023-03-02T11:58:11;3.95;;;1.20;;
16391;SDS011;8305;-33.882;151.134;2023-03-02T12:00:46;2.28;;;1.10;;
16391;SDS011;8305;-33.882;151.134;2023-03-02T12:03:21;3.42;;;1.17;;
16391;SDS011;8305;-33.882;151.134;2023-03-02T12:06:05;3.92;;;1.10;;
16391;SDS011;8305;-33.882;151.134;2023-03-02T12:08:54;2.33;;;1.05;;
16391;SDS011;8305;-33.882;151.134;2023-03-02T12:11:38;4.47;;;1.08;;
16391;SDS011;8305;-33.882;151.134;2023-03-02T12:17:06;2.50;;;0.90;;
16391;SDS011;8305;-33.882;151.134;2023-03-02T12:19:49;3.10;;;0.90;;
16391;SDS011;8305;-33.882;151.134;2023-03-02T12:22:26;2.78;;;0.80;;
16391;SDS011;8305;-33.882;151.134;2023-03-02T12:25:02;3.47;;;1.27;;
16391;SDS011;8305;-33.882;151.134;2023-03-02T12:27:38;2.80;;;1.05;;
16391;SDS011;8305;-33.882;151.134;2023-03-02T12:33:00;4.22;;;1.00;;
16391;SDS011;8305;-33.882;151.134;2023-03-02T12:35:33;3.40;;;1.05;;
16391;SDS011;8305;-33.882;151.134;2023-03-02T12:38:04;2.42;;;0.90;;
16391;SDS011;8305;-33.882;151.134;2023-03-02T12:40:49;2.75;;;0.98;;
16391;SDS011;8305;-33.882;151.134;2023-03-02T12:43:37;1.90;;;1.10;;
16391;SDS011;8305;-33.882;151.134;2023-03-02T12:49:07;3.40;;;1.10;;
16391;SDS011;8305;-33.882;151.134;2023-03-02T12:51:54;1.65;;;1.00;;
16391;SDS011;8305;-33.882;151.134;2023-03-02T12:54:26;3.03;;;1.23;;
16391;SDS011;8305;-33.882;151.134;2023-03-02T12:57:02;3.03;;;1.50;;
16391;SDS011;8305;-33.882;151.134;2023-03-02T12:59:36;2.15;;;1.17;;
16391;SDS011;8305;-33.882;151.134;2023-03-02T13:02:18;1.95;;;1.00;;
16391;SDS011;8305;-33.882;151.134;2023-03-02T13:04:53;2.67;;;1.17;;
16391;SDS011;8305;-33.882;151.134;2023-03-02T13:07:26;3.45;;;1.15;;
16391;SDS011;8305;-33.882;151.134;2023-03-02T13:10:02;4.60;;;1.65;;
16391;SDS011;8305;-33.882;151.134;2023-03-02T13:12:36;2.50;;;1.30;;
16391;SDS011;8305;-33.882;151.134;2023-03-02T13:15:16;5.72;;;1.40;;
16391;SDS011;8305;-33.882;151.134;2023-03-02T13:17:51;2.22;;;0.95;;
16391;SDS011;8305;-33.882;151.134;2023-03-02T13:20:24;2.63;;;1.08;;
16391;SDS011;8305;-33.882;151.134;2023-03-02T13:22:56;3.55;;;1.30;;
16391;SDS011;8305;-33.882;151.134;2023-03-02T13:25:28;3.25;;;1.38;;
16391;SDS011;8305;-33.882;151.134;2023-03-02T13:27:59;4.40;;;1.60;;
16391;SDS011;8305;-33.882;151.134;2023-03-02T13:30:35;2.35;;;1.27;;
16391;SDS011;8305;-33.882;151.134;2023-03-02T13:33:18;2.85;;;1.35;;
16391;SDS011;8305;-33.882;151.134;2023-03-02T13:35:52;4.25;;;1.20;;
16391;SDS011;8305;-33.882;151.134;2023-03-02T13:38:23;2.72;;;1.17;;
16391;SDS011;8305;-33.882;151.134;2023-03-02T13:40:58;2.58;;;1.33;;
16391;SDS011;8305;-33.882;151.134;2023-03-02T13:43:36;2.60;;;1.15;;
16391;SDS011;8305;-33.882;151.134;2023-03-02T13:49:02;3.33;;;1.27;;
16391;SDS011;8305;-33.882;151.134;2023-03-02T13:51:35;4.47;;;1.00;;
16391;SDS011;8305;-33.882;151.134;2023-03-02T13:54:11;4.13;;;1.42;;
16391;SDS011;8305;-33.882;151.134;2023-03-02T13:56:48;3.15;;;1.10;;
16391;SDS011;8305;-33.882;151.134;2023-03-02T13:59:21;2.53;;;1.20;;
16391;SDS011;8305;-33.882;151.134;2023-03-02T14:01:54;3.00;;;1.20;;
16391;SDS011;8305;-33.882;151.134;2023-03-02T14:04:25;4.45;;;1.30;;
16391;SDS011;8305;-33.882;151.134;2023-03-02T14:06:56;2.53;;;1.13;;
16391;SDS011;8305;-33.882;151.134;2023-03-02T14:09:27;3.15;;;1.30;;
16391;SDS011;8305;-33.882;151.134;2023-03-02T14:11:58;3.00;;;1.30;;
16391;SDS011;8305;-33.882;151.134;2023-03-02T14:14:29;2.80;;;1.20;;
16391;SDS011;8305;-33.882;151.134;2023-03-02T14:17:10;5.65;;;1.50;;
16391;SDS011;8305;-33.882;151.134;2023-03-02T14:19:42;2.92;;;1.17;;
16391;SDS011;8305;-33.882;151.134;2023-03-02T14:22:18;3.25;;;1.17;;
16391;SDS011;8305;-33.882;151.134;2023-03-02T14:24:49;5.05;;;1.40;;
16391;SDS011;8305;-33.882;151.134;2023-03-02T14:27:20;4.18;;;1.30;;
16391;SDS011;8305;-33.882;151.134;2023-03-02T14:29:54;2.15;;;1.42;;
16391;SDS011;8305;-33.882;151.134;2023-03-02T14:32:28;3.47;;;1.40;;
16391;SDS011;8305;-33.882;151.134;2023-03-02T14:34:59;2.45;;;1.20;;
16391;SDS011;8305;-33.882;151.134;2023-03-02T14:37:30;3.00;;;1.20;;
16391;SDS011;8305;-33.882;151.134;2023-03-02T14:40:01;4.65;;;1.10;;
16391;SDS011;8305;-33.882;151.134;2023-03-02T14:42:34;4.85;;;1.33;;
16391;SDS011;8305;-33.882;151.134;2023-03-02T14:45:07;2.35;;;1.15;;
16391;SDS011;8305;-33.882;151.134;2023-03-02T14:47:41;2.90;;;1.05;;
16391;SDS011;8305;-33.882;151.134;2023-03-02T14:50:12;4.10;;;1.40;;
16391;SDS011;8305;-33.882;151.134;2023-03-02T14:52:44;4.22;;;1.23;;
16391;SDS011;8305;-33.882;151.134;2023-03-02T14:55:19;2.72;;;1.30;;
16391;SDS011;8305;-33.882;151.134;2023-03-02T14:57:53;4.75;;;1.08;;
16391;SDS011;8305;-33.882;151.134;2023-03-02T15:00:26;3.05;;;1.20;;
16391;SDS011;8305;-33.882;151.134;2023-03-02T15:02:59;3.28;;;1.20;;
16391;SDS011;8305;-33.882;151.134;2023-03-02T15:05:30;4.40;;;1.55;;
16391;SDS011;8305;-33.882;151.134;2023-03-02T15:08:01;1.88;;;1.05;;
16391;SDS011;8305;-33.882;151.134;2023-03-02T15:10:33;2.17;;;1.38;;
16391;SDS011;8305;-33.882;151.134;2023-03-02T15:13:05;5.10;;;1.40;;
16391;SDS011;8305;-33.882;151.134;2023-03-02T15:15:36;3.78;;;1.35;;
16391;SDS011;8305;-33.882;151.134;2023-03-02T15:18:09;8.55;;;1.30;;